Terminal Aerodrome Forecast
Issued by NWS

Home | Current Version | Previous Version | Text Only | Print | Product List | Glossary On
Versions: 1 2 3 4 5 6 7 8 9 10 11 12 13 14 15 16
101
FTUS45 KFGZ 191720
TAFSEZ
TAF
KSEZ 191720Z 1918/2018 17010KT 4SM -SHRA OVC005
     FM192200 20005KT 5SM -SHRA SCT012 OVC025
     FM200200 VRB05KT P6SM SCT020 BKN060=

USA.gov is the U.S. government's official web portal to all federal, state and local government web resources and services.